Time;durP1;ratioP1;P1;durP2;ratioP2;P2;SDS_P1;SDS_P2;PMS_P1;PMS_P2;Temp;Humidity;BMP_temperature;BMP_pressure;BME280_temperature;BME280_humidity;BME280_pressure;Samples;Min_cycle;Max_cycle;Signal;HPM_P1;HPM_P2
2023/07/16 00:01:02;;;;;;;48.38;35.80;;;;;;;;;;5073287;28;20127;-67
2023/07/16 00:03:28;;;;;;;54.33;38.20;;;;;;;;;;5073295;28;20032;-68
2023/07/16 00:05:55;;;;;;;57.08;42.08;;;;;;;;;;5073141;28;20063;-67
2023/07/16 00:08:23;;;;;;;54.60;40.25;;;;;;;;;;5074338;28;20024;-66
2023/07/16 00:10:49;;;;;;;56.97;41.42;;;;;;;;;;5077231;28;20059;-66
2023/07/16 00:13:16;;;;;;;57.88;42.85;;;;;;;;;;5068295;28;20032;-65
2023/07/16 00:15:42;;;;;;;51.70;36.65;;;;;;;;;;5057336;28;20021;-66
2023/07/16 00:18:09;;;;;;;57.00;38.03;;;;;;;;;;5057088;28;20060;-66
2023/07/16 00:20:36;;;;;;;62.20;37.38;;;;;;;;;;5057081;28;20029;-65
2023/07/16 00:23:02;;;;;;;58.15;38.95;;;;;;;;;;5056988;28;20513;-65
2023/07/16 00:25:29;;;;;;;50.17;33.67;;;;;;;;;;5057127;28;20500;-65
2023/07/16 00:27:56;;;;;;;58.60;40.08;;;;;;;;;;5056975;28;20029;-66
2023/07/16 00:30:22;;;;;;;54.58;37.00;;;;;;;;;;5057043;28;20394;-65
2023/07/16 00:32:49;;;;;;;60.60;42.13;;;;;;;;;;5056765;28;20028;-67
2023/07/16 00:35:15;;;;;;;62.63;46.53;;;;;;;;;;5056853;28;20037;-66
2023/07/16 00:37:42;;;;;;;72.05;46.70;;;;;;;;;;5056598;28;20063;-66
2023/07/16 00:40:09;;;;;;;56.33;40.38;;;;;;;;;;5056729;28;20021;-65
2023/07/16 00:42:36;;;;;;;54.85;37.50;;;;;;;;;;5056656;28;20041;-64
2023/07/16 00:45:03;;;;;;;50.60;36.00;;;;;;;;;;5056480;28;20032;-64
2023/07/16 00:47:29;;;;;;;47.95;34.03;;;;;;;;;;5056640;28;20017;-65
2023/07/16 00:49:56;;;;;;;45.92;34.75;;;;;;;;;;5056574;28;20047;-64
2023/07/16 00:52:23;;;;;;;54.78;37.40;;;;;;;;;;5056510;28;20100;-65
2023/07/16 00:54:50;;;;;;;56.22;36.35;;;;;;;;;;5056476;28;20028;-66
2023/07/16 00:57:16;;;;;;;48.47;35.60;;;;;;;;;;5056379;28;20036;-65
2023/07/16 00:59:43;;;;;;;52.20;36.00;;;;;;;;;;5056050;28;20069;-65
2023/07/16 01:02:10;;;;;;;49.08;35.63;;;;;;;;;;5056326;28;20025;-63
2023/07/16 01:04:37;;;;;;;56.15;35.25;;;;;;;;;;5056314;28;20075;-64
2023/07/16 01:07:05;;;;;;;57.03;38.08;;;;;;;;;;5056134;28;20095;-64
2023/07/16 01:09:33;;;;;;;50.58;37.05;;;;;;;;;;5056957;28;20029;-63
2023/07/16 01:12:01;;;;;;;49.65;35.20;;;;;;;;;;5056021;28;20028;-63
2023/07/16 01:14:28;;;;;;;45.88;34.60;;;;;;;;;;5056001;28;20025;-63
2023/07/16 01:16:58;;;;;;;44.45;34.45;;;;;;;;;;5056005;28;20025;-66
2023/07/16 01:19:25;;;;;;;47.22;34.22;;;;;;;;;;5055701;28;20056;-66
2023/07/16 01:21:56;;;;;;;47.67;34.85;;;;;;;;;;5055154;28;20025;-66
2023/07/16 01:24:31;;;;;;;55.17;41.28;;;;;;;;;;5055816;28;20417;-64
2023/07/16 01:27:05;;;;;;;145.10;111.35;;;;;;;;;;5055455;28;20030;-65
2023/07/16 01:29:34;;;;;;;75.70;54.10;;;;;;;;;;5055555;28;20032;-65
2023/07/16 01:32:01;;;;;;;88.95;61.00;;;;;;;;;;5057528;28;20481;-64
2023/07/16 01:34:29;;;;;;;104.05;72.93;;;;;;;;;;5075514;28;20035;-66
2023/07/16 01:36:56;;;;;;;138.55;106.80;;;;;;;;;;5073713;28;20024;-66
2023/07/16 01:39:23;;;;;;;84.32;58.38;;;;;;;;;;5055885;28;20075;-67
2023/07/16 01:41:49;;;;;;;96.13;69.53;;;;;;;;;;5055468;28;20036;-65
2023/07/16 01:44:16;;;;;;;81.85;62.03;;;;;;;;;;5055477;28;20075;-66
2023/07/16 01:46:43;;;;;;;74.63;55.80;;;;;;;;;;5055485;28;20036;-66
2023/07/16 01:49:09;;;;;;;115.75;91.47;;;;;;;;;;5055261;28;20028;-67
2023/07/16 01:51:36;;;;;;;63.38;48.75;;;;;;;;;;5055407;28;20025;-67
2023/07/16 01:54:02;;;;;;;57.20;40.60;;;;;;;;;;5055439;28;20036;-65
2023/07/16 01:56:29;;;;;;;54.00;38.25;;;;;;;;;;5058992;28;20021;-65
2023/07/16 01:58:56;;;;;;;50.90;38.60;;;;;;;;;;5075284;28;20077;-67
2023/07/16 02:01:22;;;;;;;43.67;36.10;;;;;;;;;;5075069;28;20044;-65
2023/07/16 02:03:49;;;;;;;80.65;62.72;;;;;;;;;;5074934;28;20028;-70
2023/07/16 02:06:16;;;;;;;122.85;83.00;;;;;;;;;;5075027;28;20107;-69
2023/07/16 02:08:42;;;;;;;112.90;83.55;;;;;;;;;;5074981;28;20029;-65
2023/07/16 02:11:09;;;;;;;63.15;46.90;;;;;;;;;;5074839;28;20496;-64
2023/07/16 02:13:35;;;;;;;45.80;35.83;;;;;;;;;;5074896;28;20466;-66
2023/07/16 02:16:02;;;;;;;50.15;38.10;;;;;;;;;;5069517;28;20028;-66
2023/07/16 02:18:29;;;;;;;44.50;36.13;;;;;;;;;;5065379;28;20070;-66
2023/07/16 02:20:55;;;;;;;47.85;36.28;;;;;;;;;;5064461;28;20355;-66
2023/07/16 02:23:22;;;;;;;46.88;36.88;;;;;;;;;;5063764;28;20074;-65
2023/07/16 02:25:49;;;;;;;42.63;34.30;;;;;;;;;;5065353;28;20381;-65
2023/07/16 02:28:15;;;;;;;46.38;36.08;;;;;;;;;;5057108;28;20505;-63
2023/07/16 02:30:42;;;;;;;60.70;47.30;;;;;;;;;;5054753;28;20082;-64
2023/07/16 02:33:09;;;;;;;110.40;80.90;;;;;;;;;;5054583;28;20053;-64
2023/07/16 02:35:35;;;;;;;135.38;92.55;;;;;;;;;;5054431;28;20017;-65
2023/07/16 02:38:02;;;;;;;97.93;70.22;;;;;;;;;;5054617;28;20506;-64
2023/07/16 04:02:11;;;;;;;31.70;25.35;;;30.20;99.90;;;;;;5091039;27;20383;-67
2023/07/16 04:04:38;;;;;;;33.20;26.95;;;30.20;99.90;;;;;;5090947;28;20052;-67
2023/07/16 04:07:04;;;;;;;;;;;;;;;;;;5090814;28;20020;-68
2023/07/16 04:09:31;;;;;;;36.70;27.75;;;;;;;;;;5089757;28;20357;-67
2023/07/16 04:11:57;;;;;;;258.88;178.32;;;;;;;;;;5090654;28;20028;-68
2023/07/16 04:14:24;;;;;;;178.63;123.15;;;;;;;;;;5090570;28;20033;-68
2023/07/16 04:16:50;;;;;;;53.80;41.20;;;;;;;;;;5090901;28;20435;-68
2023/07/16 04:19:17;;;;;;;39.67;29.55;;;;;;;;;;5090975;28;20078;-68
2023/07/16 04:21:44;;;;;;;50.83;35.22;;;;;;;;;;5090259;28;20040;-66
2023/07/16 04:24:10;;;;;;;43.00;29.70;;;;;;;;;;5090372;28;20020;-67
2023/07/16 04:26:37;;;;;;;39.50;30.88;;;;;;;;;;5089115;28;20047;-66
2023/07/16 04:29:04;;;;;;;32.10;25.02;;;;;;;;;;5089794;28;20042;-68
2023/07/16 04:31:30;;;;;;;35.08;26.92;;;;;;;;;;5090134;28;20021;-68
2023/07/16 04:33:57;;;;;;;53.15;35.15;;;;;;;;;;5090236;28;20385;-67
2023/07/16 04:36:24;;;;;;;39.85;28.88;;;;;;;;;;5089918;28;20535;-67
2023/07/16 04:38:50;;;;;;;36.60;28.02;;;;;;;;;;5090172;28;20058;-68
2023/07/16 04:41:17;;;;;;;35.75;26.58;;;;;;;;;;5089991;28;20021;-68
2023/07/16 04:43:44;;;;;;;33.03;25.52;;;;;;;;;;5090119;28;20101;-67
2023/07/16 04:46:11;;;;;;;31.85;25.80;;;;;;;;;;5089863;28;20482;-68
2023/07/16 04:48:38;;;;;;;34.75;24.10;;;;;;;;;;5089846;28;20090;-67
2023/07/16 04:51:05;;;;;;;29.05;24.27;;;;;;;;;;5089751;28;20073;-66
2023/07/16 04:53:31;;;;;;;33.63;25.52;;;;;;;;;;5090021;28;20036;-67
2023/07/16 04:55:58;;;;;;;198.90;145.68;;;;;;;;;;5089797;28;20026;-67
2023/07/16 04:58:24;;;;;;;168.07;116.07;;;;;;;;;;5089713;28;20021;-65
2023/07/16 05:00:51;;;;;;;56.08;38.47;;;;;;;;;;5089225;28;20067;-64
2023/07/16 05:03:18;;;;;;;34.60;29.60;;;;;;;;;;5089843;28;20103;-65
2023/07/16 05:05:44;;;;;;;37.75;27.33;;;;;;;;;;5089640;28;20048;-66
2023/07/16 05:08:11;;;;;;;33.80;28.30;;;;;;;;;;5089303;28;20031;-65
2023/07/16 05:10:37;;;;;;;39.05;28.50;;;;;;;;;;5089430;28;20032;-66
2023/07/16 05:13:04;;;;;;;35.10;28.60;;;;;;;;;;5078135;28;20024;-65
2023/07/16 05:15:33;;;;;;;44.15;31.67;;;;;;;;;;5075996;28;20103;-66
2023/07/16 05:17:59;;;;;;;38.90;29.70;;;;;;;;;;5075910;28;20040;-65
2023/07/16 05:20:26;;;;;;;33.47;27.27;;;;;;;;;;5075678;28;20469;-65
2023/07/16 05:22:52;;;;;;;33.28;26.35;;;;;;;;;;5075619;28;20020;-66
2023/07/16 05:25:19;;;;;;;31.38;24.88;;;;;;;;;;5076002;28;20025;-66
2023/07/16 05:27:46;;;;;;;32.25;24.90;;;;;;;;;;5075663;28;20423;-66
2023/07/16 05:30:12;;;;;;;38.83;27.77;;;;;;;;;;5075426;28;20060;-66
2023/07/16 05:32:39;;;;;;;31.48;25.70;;;;;;;;;;5075566;28;20108;-66
2023/07/16 05:35:06;;;;;;;34.20;26.55;;;;;;;;;;5075565;28;20035;-66
2023/07/16 05:37:33;;;;;;;34.38;26.98;;;;;;;;;;5075325;28;20032;-67
2023/07/16 05:39:59;;;;;;;32.85;26.30;;;;;;;;;;5075466;28;20036;-67
2023/07/16 05:42:26;;;;;;;36.45;28.05;;;;;;;;;;5075402;28;20111;-67
2023/07/16 05:44:53;;;;;;;33.55;27.67;;;;;;;;;;5075142;28;20020;-69
2023/07/16 05:47:19;;;;;;;33.30;26.00;;;;;;;;;;5075631;28;20024;-67
2023/07/16 05:49:46;;;;;;;45.28;32.97;;;;;;;;;;5075247;28;20025;-66
2023/07/16 05:52:13;;;;;;;37.95;26.92;;;;;;;;;;5075085;28;20040;-66
2023/07/16 05:54:39;;;;;;;51.10;39.78;;;;;;;;;;5075335;28;20384;-67
2023/07/16 05:57:06;;;;;;;75.00;61.65;;;;;;;;;;5075330;28;20074;-66
2023/07/16 05:59:36;;;;;;;58.22;45.75;;;;;;;;;;5075126;28;20017;-66
2023/07/16 06:02:02;;;;;;;38.33;27.08;;;;;;;;;;5074746;28;20056;-66
2023/07/16 06:04:29;;;;;;;36.20;27.17;;;;;;;;;;5074940;28;20020;-66
2023/07/16 06:06:57;;;;;;;27.10;23.13;;;;;;;;;;5074850;28;20023;-67
2023/07/16 06:09:24;;;;;;;31.85;23.88;;;;;;;;;;5071466;28;20029;-65
2023/07/16 06:11:50;;;;;;;48.78;39.53;;;;;;;;;;5066513;28;20024;-67
2023/07/16 06:14:17;;;;;;;42.55;32.83;;;;;;;;;;5074628;28;20020;-66
2023/07/16 06:16:44;;;;;;;36.92;27.63;;;;;;;;;;5074663;28;20036;-66
2023/07/16 06:19:11;;;;;;;49.13;37.60;;;;;;;;;;5074616;28;20024;-66
2023/07/16 06:21:37;;;;;;;33.70;27.15;;;;;;;;;;5074414;28;20024;-66
2023/07/16 06:24:04;;;;;;;27.77;22.23;;;;;;;;;;5073628;28;20424;-66
2023/07/16 06:26:30;;;;;;;27.13;22.77;;;;;;;;;;5074741;28;20354;-66
2023/07/16 06:28:57;;;;;;;28.17;24.08;;;;;;;;;;5074567;28;20085;-67
2023/07/16 06:31:24;;;;;;;29.50;23.17;;;;;;;;;;5074404;28;20032;-67
2023/07/16 06:33:50;;;;;;;31.40;24.95;;;;;;;;;;5074338;28;20497;-67
2023/07/16 06:36:17;;;;;;;102.10;72.05;;;;;;;;;;5072168;28;20097;-66
2023/07/16 06:38:44;;;;;;;57.83;41.70;;;;;;;;;;5064363;28;20028;-68
2023/07/16 06:41:10;;;;;;;39.90;28.92;;;;;;;;;;5054188;28;20032;-67
2023/07/16 06:43:37;;;;;;;51.97;41.47;;;;;;;;;;5054302;28;20024;-67
2023/07/16 06:46:04;;;;;;;30.30;24.38;;;;;;;;;;5053984;28;20021;-67
2023/07/16 06:48:30;;;;;;;27.65;21.90;;;;;;;;;;5054339;28;20025;-67
2023/07/16 06:50:57;;;;;;;31.30;23.02;;;;;;;;;;5054093;28;20025;-67
2023/07/16 06:53:24;;;;;;;27.05;22.25;;;;;;;;;;5053544;28;20029;-65
2023/07/16 06:55:51;;;;;;;30.38;21.83;;;;;;;;;;5069234;28;20055;-65
2023/07/16 06:58:17;;;;;;;29.15;25.10;;;;;;;;;;5058864;28;20040;-67
2023/07/16 07:00:44;;;;;;;29.27;22.55;;;;;;;;;;5055979;28;20068;-68
2023/07/16 07:03:11;;;;;;;37.42;24.75;;;;;;;;;;5074152;28;20436;-68
2023/07/16 07:05:41;;;;;;;37.65;22.45;;;;;;;;;;5074302;28;20016;-67
2023/07/16 07:08:08;;;;;;;26.38;21.90;;;;;;;;;;5073953;28;20029;-66
2023/07/16 07:10:37;;;;;;;32.05;23.80;;;;;;;;;;5073592;28;20028;-65
2023/07/16 07:13:03;;;;;;;28.08;21.77;;;;;;;;;;5073531;28;20036;-66
2023/07/16 07:15:30;;;;;;;25.00;20.85;;;;;;;;;;5073457;28;20392;-65
2023/07/16 07:17:57;;;;;;;27.38;21.52;;;;;;;;;;5073236;28;20127;-65
2023/07/16 07:20:23;;;;;;;25.40;20.45;;;;;;;;;;5069835;28;20033;-66
2023/07/16 07:22:50;;;;;;;26.70;21.40;;;;;;;;;;5072833;28;20021;-66
2023/07/16 07:25:18;;;;;;;25.45;19.33;;;;;;;;;;5072186;28;20111;-66
2023/07/16 07:27:44;;;;;;;25.98;20.45;;;;;;;;;;5056278;28;20017;-67
2023/07/16 07:30:11;;;;;;;25.52;19.02;;;;;;;;;;5062450;28;20055;-68
2023/07/16 07:32:38;;;;;;;34.53;23.15;;;;;;;;;;5063497;28;20029;-67
2023/07/16 07:35:06;;;;;;;25.88;21.25;;;;;;;;;;5062305;28;20051;-67
2023/07/16 07:37:32;;;;;;;24.50;20.55;;;;;;;;;;5062402;28;20060;-67
2023/07/16 07:39:59;;;;;;;26.25;20.23;;;;;;;;;;5062395;28;20074;-67
2023/07/16 07:42:27;;;;;;;24.42;19.70;;;;;;;;;;5063504;28;20107;-66
2023/07/16 07:44:54;;;;;;;24.60;19.38;;;;;;;;;;5061732;28;20029;-65
2023/07/16 07:47:20;;;;;;;27.77;19.88;;;;;;;;;;5062867;28;20041;-68
2023/07/16 07:49:47;;;;;;;27.10;20.15;;;;;;;;;;5062444;28;20127;-67
2023/07/16 07:52:14;;;;;;;21.83;19.17;;;;;;;;;;5062684;28;20405;-69
2023/07/16 07:54:41;;;;;;;35.85;20.67;;;;;;;;;;5061100;28;20017;-66
2023/07/16 07:57:08;;;;;;;27.10;20.35;;;;;;;;;;5062642;28;20035;-66
2023/07/16 07:59:34;;;;;;;29.45;21.40;;;;;;;;;;5059801;28;20068;-66
2023/07/16 08:02:01;;;;;;;24.55;20.10;;;;;;;;;;5063074;28;20036;-64
2023/07/16 08:04:28;;;;;;;26.20;20.33;;;;;;;;;;5063829;28;20032;-64
2023/07/16 08:06:55;;;;;;;23.77;19.25;;;;;;;;;;5061907;28;20568;-66
2023/07/16 08:09:22;;;;;;;25.13;20.10;;;;;;;;;;5062252;28;20703;-64
2023/07/16 08:11:48;;;;;;;37.00;19.92;;;;;;;;;;5062632;28;20623;-64
2023/07/16 08:14:15;;;;;;;25.38;18.65;;;;;;;;;;5064104;28;20043;-66
2023/07/16 08:16:42;;;;;;;23.58;19.58;;;;;;;;;;5062069;28;20066;-66
2023/07/16 08:19:09;;;;;;;27.17;19.77;;;;;;;;;;5060556;28;20029;-66
2023/07/16 08:21:37;;;;;;;33.00;21.10;;;;;;;;;;5062315;28;20041;-67
2023/07/16 08:24:06;;;;;;;24.48;19.42;;;;;;;;;;5059167;28;20619;-70
2023/07/16 08:26:32;;;;;;;29.88;19.33;;;;;;;;;;5061910;28;20348;-67
2023/07/16 08:29:01;;;;;;;27.05;20.00;;;;;;;;;;5061230;28;20024;-68
2023/07/16 08:31:28;;;;;;;23.23;18.77;;;;;;;;;;5059915;28;20035;-67
2023/07/16 08:33:54;;;;;;;21.35;17.92;;;;;;;;;;5061046;28;20028;-68
2023/07/16 08:36:21;;;;;;;22.15;18.30;;;;;;;;;;5062724;28;20067;-67
2023/07/16 08:38:47;;;;;;;24.00;17.85;;;;;;;;;;5062018;28;20033;-68
2023/07/16 08:41:15;;;;;;;27.08;18.48;;;;;;;;;;5059000;28;20588;-70
2023/07/16 08:43:42;;;;;;;29.50;22.42;;;;;;;;;;5057189;28;20017;-70
2023/07/16 08:46:09;;;;;;;24.58;19.65;;;;;;;;;;5061547;28;20112;-69
2023/07/16 08:48:36;;;;;;;28.42;18.67;;;;;;;;;;5067140;28;20021;-71
2023/07/16 08:51:03;;;;;;;24.30;19.63;;;;;;;;;;5071858;28;20123;-67
2023/07/16 08:53:30;;;;;;;26.75;19.38;;;;;;;;;;5066769;28;20284;-70
2023/07/16 08:55:57;;;;;;;26.08;20.52;;;;;;;;;;5060006;28;20029;-71
2023/07/16 08:58:24;;;;;;;28.38;20.67;;;;;;;;;;5067263;28;20035;-69
2023/07/16 09:00:52;;;;;;;28.80;21.88;;;;;;;;;;5066316;28;20052;-67
2023/07/16 09:03:19;;;;;;;32.75;25.38;;;;;;;;;;5065074;28;20082;-67
2023/07/16 09:05:46;;;;;;;135.48;104.20;;;;;;;;;;5066705;28;20025;-66
2023/07/16 09:08:13;;;;;;;72.13;48.50;;;;;;;;;;5066192;28;20138;-68
2023/07/16 09:10:41;;;;;;;87.82;71.07;;;;;;;;;;5057553;28;20086;-66
2023/07/16 09:13:08;;;;;;;39.85;29.60;;;;;;;;;;5056999;28;20090;-65
2023/07/16 09:15:34;;;;;;;33.45;23.08;;;;;;;;;;5056968;28;20025;-65
2023/07/16 09:18:01;;;;;;;36.17;24.05;;;;;;;;;;5057161;28;20085;-64
2023/07/16 09:20:30;;;;;;;26.08;19.77;;;;;;;;;;5065118;28;20040;-65
2023/07/16 09:22:57;;;;;;;27.48;21.58;;;;;;;;;;5064894;28;20032;-65
2023/07/16 09:25:27;;;;;;;27.38;19.92;;;;;;;;;;5066437;28;20056;-64
2023/07/16 09:27:54;;;;;;;27.02;21.42;;;;;;;;;;5065323;28;20017;-64
2023/07/16 09:30:21;;;;;;;31.05;20.52;;;;;;;;;;5064817;28;20024;-66
2023/07/16 09:32:47;;;;;;;38.28;24.73;;;;;;;;;;5066936;28;20025;-69
2023/07/16 09:35:16;;;;;;;26.55;20.33;;;;;;;;;;5068415;28;20024;-67
2023/07/16 09:37:44;;;;;;;32.15;22.42;;;;;;;;;;5076784;28;20094;-69
2023/07/16 09:40:12;;;;;;;27.83;20.70;;;;;;;;;;5065760;28;20039;-68
2023/07/16 09:42:39;;;;;;;29.85;22.27;;;;;;;;;;5064191;28;20535;-66
2023/07/16 09:45:09;;;;;;;34.65;24.40;;;;;;;;;;5058202;28;20025;-66
2023/07/16 09:47:36;;;;;;;45.00;27.90;;;;;;;;;;5067628;22;20069;-67
2023/07/16 09:50:04;;;;;;;91.22;68.80;;;;;;;;;;5025329;28;20037;-66
2023/07/16 09:52:32;;;;;;;134.90;97.63;;;;;;;;;;5008204;28;20172;-69
2023/07/16 09:55:00;;;;;;;83.97;61.33;;;;;;;;;;5009843;28;20111;-70
2023/07/16 09:57:27;;;;;;;79.93;60.38;;;;;;;;;;5007260;28;20068;-69
2023/07/16 09:59:57;;;;;;;65.90;46.88;;;;;;;;;;5003493;28;20124;-70
2023/07/16 10:02:23;;;;;;;42.03;29.67;;;;;;;;;;5006753;28;20029;-68
2023/07/16 10:04:50;;;;;;;57.08;42.22;;;;;;;;;;5005248;28;20077;-70
2023/07/16 10:07:26;;;;;;;66.78;48.58;;;;;;;;;;5006547;28;20025;-68
2023/07/16 10:09:56;;;;;;;76.95;54.47;;;;;;;;;;5002176;28;20025;-67
2023/07/16 10:12:26;;;;;;;75.40;59.53;;;;;;;;;;5008207;28;20383;-70
2023/07/16 10:14:56;;;;;;;78.22;57.78;;;;;;;;;;4999070;28;20073;-68
2023/07/16 10:17:24;;;;;;;195.88;132.05;;;;;;;;;;5003464;28;20018;-69
2023/07/16 10:19:52;;;;;;;425.63;256.08;;;;;;;;;;5007005;28;20030;-71
2023/07/16 10:22:19;;;;;;;505.92;345.50;;;;;;;;;;5002811;28;20031;-69
2023/07/16 10:24:53;;;;;;;914.40;637.13;;;;;;;;;;5003397;28;20073;-69
2023/07/16 10:27:27;;;;;;;929.10;517.17;;;;;;;;;;4997171;28;20037;-69
2023/07/16 10:29:54;;;;;;;418.80;239.38;;;;;;;;;;5003542;28;20058;-66
2023/07/16 10:32:21;;;;;;;465.98;304.48;;;;;;;;;;5006218;28;20030;-68
2023/07/16 10:34:48;;;;;;;620.40;414.90;;;;;;;;;;5004288;28;20033;-69
2023/07/16 10:37:14;;;;;;;269.42;149.20;;;;;;;;;;5010410;28;20022;-70
2023/07/16 10:39:47;;;;;;;225.82;130.05;;;;;;;;;;5005882;28;20022;-69
2023/07/16 10:42:14;;;;;;;421.33;250.38;;;;;;;;;;5004978;28;20087;-66
2023/07/16 10:44:41;;;;;;;499.55;291.42;;;;;;;;;;5011520;28;20033;-66
2023/07/16 10:47:08;;;;;;;408.08;186.25;;;;;;;;;;5011546;28;20154;-67
2023/07/16 10:49:35;;;;;;;250.63;112.78;;;;;;;;;;5012376;28;20049;-69
2023/07/16 10:52:02;;;;;;;446.25;214.57;;;;;;;;;;5014059;28;20402;-69
2023/07/16 10:54:29;;;;;;;343.40;153.30;;;;;;;;;;5014018;28;20037;-68
2023/07/16 10:56:55;;;;;;;397.23;174.18;;;;;;;;;;5012250;28;20081;-70
2023/07/16 10:59:22;;;;;;;231.88;99.93;;;;;;;;;;5006417;28;20077;-68
2023/07/16 11:01:49;;;;;;;233.35;114.88;;;;;;;;;;5002601;28;20044;-67
2023/07/16 11:04:16;;;;;;;174.40;100.97;;;;;;;;;;5003453;28;20081;-68
2023/07/16 11:06:42;;;;;;;158.02;74.38;;;;;;;;;;5004075;28;20022;-70
2023/07/16 11:09:09;;;;;;;145.18;67.90;;;;;;;;;;4998715;28;20082;-66
2023/07/16 11:11:36;;;;;;;184.18;78.47;;;;;;;;;;5008153;28;20383;-68
2023/07/16 11:14:06;;;;;;;187.95;86.30;;;;;;;;;;5007871;28;20080;-67
2023/07/16 11:16:35;;;;;;;384.58;222.80;;;;;;;;;;5012293;28;20076;-68
2023/07/16 11:19:05;;;;;;;283.45;167.93;;;;;;;;;;5004260;28;20474;-66
2023/07/16 11:21:34;;;;;;;181.05;111.78;;;;;;;;;;5005167;28;20475;-66
2023/07/16 11:24:10;;;;;;;168.80;90.00;;;;;;;;;;5000790;28;20030;-67
2023/07/16 11:26:37;;;;;;;92.00;51.60;;;;;;;;;;5000626;28;20439;-67
2023/07/16 11:29:14;;;;;;;91.85;53.47;;;;;;;;;;5001299;28;20022;-67
2023/07/16 11:31:41;;;;;;;43.90;31.35;;;;;;;;;;5003957;28;20025;-68
2023/07/16 11:34:08;;;;;;;46.83;31.73;;;;;;;;;;5007474;28;20040;-68
2023/07/16 11:36:35;;;;;;;39.88;26.38;;;;;;;;;;5004444;28;20030;-68
2023/07/16 11:39:04;;;;;;;52.20;31.15;;;;;;;;;;5002374;28;20108;-68
2023/07/16 11:41:31;;;;;;;45.50;29.05;;;;;;;;;;5000739;28;20476;-69
2023/07/16 11:44:02;;;;;;;49.28;32.00;;;;;;;;;;5006923;28;20033;-67
2023/07/16 11:46:33;;;;;;;44.47;29.20;;;;;;;;;;5005826;28;20029;-67
2023/07/16 11:49:00;;;;;;;40.00;28.67;;;;;;;;;;4999539;28;20490;-68
2023/07/16 11:51:26;;;;;;;236.07;187.77;;;;;;;;;;4999872;28;20047;-67
2023/07/16 11:53:53;;;;;;;71.22;50.20;;;;;;;;;;5003340;28;20501;-70
2023/07/16 11:56:20;;;;;;;59.30;43.47;;;;;;;;;;5002931;28;20104;-66
2023/07/16 11:58:46;;;;;;;68.88;46.90;;;;;;;;;;5004759;28;20423;-66
2023/07/16 12:01:14;;;;;;;50.17;33.85;;;;;;;;;;5002360;28;20101;-66
2023/07/16 12:03:41;;;;;;;43.50;29.42;;;;;;;;;;5001984;28;20475;-65
2023/07/16 12:06:09;;;;;;;49.65;30.77;;;;;;;;;;5002989;28;20032;-67
2023/07/16 12:08:36;;;;;;;66.13;36.20;;;;;;;;;;5001156;28;20088;-66
2023/07/16 12:11:02;;;;;;;33.42;23.80;;;;;;;;;;5008164;28;20048;-66
2023/07/16 12:13:29;;;;;;;51.45;31.23;;;;;;;;;;5013008;28;20032;-67
2023/07/16 12:15:55;;;;;;;32.90;23.85;;;;;;;;;;5019512;28;20033;-67
2023/07/16 12:18:22;;;;;;;28.90;22.65;;;;;;;;;;5023644;28;20029;-67
2023/07/16 12:20:49;;;;;;;48.45;27.05;;;;;;;;;;5026511;28;20582;-69
2023/07/16 12:23:15;;;;;;;32.22;24.38;;;;;;;;;;5019117;28;20036;-69
2023/07/16 12:25:43;;;;;;;31.45;23.55;;;;;;;;;;5033272;28;20459;-68
2023/07/16 12:28:10;;;;;;;26.63;18.77;;;;;;;;;;5028738;28;20029;-66
2023/07/16 12:30:36;;;;;;;24.88;18.08;;;;;;;;;;5023414;28;20041;-69
2023/07/16 12:33:03;;;;;;;24.38;17.33;;;;;;;;;;5015818;28;20034;-67
2023/07/16 12:35:30;;;;;;;21.17;16.38;;;;;;;;;;5009434;28;21100;-71
2023/07/16 12:37:58;;;;;;;24.10;17.02;;;;;;;;;;5009112;28;20061;-71
2023/07/16 12:40:25;;;;;;;145.40;111.07;;;;;;;;;;5010687;28;20113;-68
2023/07/16 12:42:52;;;;;;;64.88;50.13;;;;;;;;;;5009530;28;20026;-69
2023/07/16 12:45:18;;;;;;;45.53;31.05;;;;;;;;;;5011986;28;20018;-66
2023/07/16 12:47:45;;;;;;;42.30;25.92;;;;;;;;;;5011094;28;20491;-67
2023/07/16 12:50:11;;;;;;;26.27;18.25;;;;;;;;;;5011621;28;20041;-65
2023/07/16 12:52:38;;;;;;;23.63;17.60;;;;;;;;;;5012912;28;20045;-67
2023/07/16 12:55:05;;;;;;;23.65;16.38;;;;;;;;;;5012328;28;20029;-67
2023/07/16 12:57:32;;;;;;;87.03;40.95;;;;;;;;;;5010748;28;20083;-67
2023/07/16 12:59:58;;;;;;;28.65;19.20;;;;;;;;;;5012543;28;20018;-66
2023/07/16 13:02:25;;;;;;;27.38;19.60;;;;;;;;;;5012426;28;20105;-66
2023/07/16 13:04:52;;;;;;;32.25;20.50;;;;;;;;;;5010905;28;20056;-66
2023/07/16 13:07:18;;;;;;;31.63;21.88;;;;;;;;;;5014338;28;20022;-67
2023/07/16 13:09:45;;;;;;;26.83;19.60;;;;;;;;;;5015018;28;20022;-66
2023/07/16 13:12:11;;;;;;;32.15;21.27;;;;;;;;;;5011131;28;20483;-66
2023/07/16 13:14:38;;;;;;;30.05;20.02;;;;;;;;;;5012335;28;20026;-68
2023/07/16 13:17:05;;;;;;;32.10;19.60;;;;;;;;;;5012238;28;20089;-68
2023/07/16 13:19:31;;;;;;;28.00;19.08;;;;;;;;;;5017150;28;20083;-66
2023/07/16 13:21:58;;;;;;;29.73;20.70;;;;;;;;;;5014963;28;20058;-67
2023/07/16 13:24:25;;;;;;;33.78;26.48;;;;;;;;;;5011886;28;20022;-68
2023/07/16 13:26:52;;;;;;;34.80;25.02;;;;;;;;;;5011167;28;20033;-67
2023/07/16 13:29:18;;;;;;;31.80;21.77;;;;;;;;;;5011822;28;20479;-67
2023/07/16 13:31:45;;;;;;;39.20;25.15;;;;;;;;;;5014780;28;20036;-66
2023/07/16 13:34:11;;;;;;;88.45;51.38;;;;;;;;;;5010118;28;20026;-67
2023/07/16 13:36:38;;;;;;;26.95;19.85;;;;;;;;;;5012068;28;20046;-67
2023/07/16 13:39:05;;;;;;;148.52;108.15;;;;;;;;;;5013971;28;20435;-66
2023/07/16 13:41:31;;;;;;;191.27;137.50;;;;;;;;;;5013912;28;20037;-66
2023/07/16 13:43:58;;;;;;;31.63;24.30;;;;;;;;;;5012308;28;20022;-67
2023/07/16 13:46:25;;;;;;;38.50;23.00;;;;;;;;;;5011454;28;20022;-67
2023/07/16 13:48:52;;;;;;;28.02;18.73;;;;;;;;;;5009928;28;20070;-68
2023/07/16 13:51:18;;;;;;;26.77;19.33;;;;;;;;;;5013175;28;20025;-65
2023/07/16 13:53:45;;;;;;;28.73;19.38;;;;;;;;;;5014494;28;20474;-65
2023/07/16 13:56:12;;;;;;;29.73;18.77;;;;;;;;;;5010510;28;20026;-65
2023/07/16 13:58:38;;;;;;;36.08;22.60;;;;;;;;;;5010742;28;20030;-64
2023/07/16 14:01:05;;;;;;;31.88;21.25;;;;;;;;;;5014646;28;20084;-64
2023/07/16 14:03:32;;;;;;;23.50;17.17;;;;;;;;;;5012949;28;20018;-64
2023/07/16 14:05:58;;;;;;;26.27;16.98;;;;;;;;;;5010982;28;20348;-64
2023/07/16 14:08:26;;;;;;;24.17;16.90;;;;;;;;;;5006244;28;20051;-66
2023/07/16 14:10:52;;;;;;;31.60;19.10;;;;;;;;;;5008138;28;20061;-67
2023/07/16 14:13:19;;;;;;;34.53;19.50;;;;;;;;;;5005476;28;20019;-65
2023/07/16 14:15:45;;;;;;;24.08;17.50;;;;;;;;;;5005109;28;20498;-65
2023/07/16 14:18:12;;;;;;;75.05;51.25;;;;;;;;;;5003591;28;20384;-64
2023/07/16 14:20:39;;;;;;;64.40;46.22;;;;;;;;;;5003126;28;20030;-65
2023/07/16 14:23:06;;;;;;;41.90;30.67;;;;;;;;;;5003732;28;20022;-65
2023/07/16 14:25:32;;;;;;;75.70;59.00;;;;;;;;;;5007939;28;20014;-65
2023/07/16 14:27:59;;;;;;;28.52;18.92;;;;;;;;;;5001064;28;20023;-65
2023/07/16 14:30:25;;;;;;;27.85;17.05;;;;;;;;;;5003438;28;20054;-66
2023/07/16 14:32:52;;;;;;;22.77;16.83;;;;;;;;;;5000035;28;20519;-66
2023/07/16 14:35:19;;;;;;;31.10;18.55;;;;;;;;;;4999005;28;20022;-66
2023/07/16 14:37:45;;;;;;;29.98;17.23;;;;;;;;;;4998841;28;20022;-66
2023/07/16 14:40:12;;;;;;;24.73;17.40;;;;;;;;;;5000993;28;20108;-66
2023/07/16 14:42:39;;;;;;;28.23;18.25;;;;;;;;;;5011684;28;20076;-66
2023/07/16 14:45:07;;;;;;;29.35;18.50;;;;;;;;;;5010565;28;20433;-66
2023/07/16 14:47:34;;;;;;;29.70;16.73;;;;;;;;;;5010586;28;20104;-66
2023/07/16 14:50:01;;;;;;;22.35;15.55;;;;;;;;;;5011077;28;20429;-65
2023/07/16 14:52:27;;;;;;;24.98;17.13;;;;;;;;;;5011300;28;20030;-66
2023/07/16 14:54:54;;;;;;;23.80;17.98;;;;;;;;;;5011568;28;20025;-66
2023/07/16 14:57:20;;;;;;;25.15;16.48;;;;;;;;;;5010227;28;20026;-65
2023/07/16 14:59:47;;;;;;;25.77;16.52;;;;;;;;;;4999277;28;20030;-65
2023/07/16 15:02:14;;;;;;;22.30;17.10;;;;;;;;;;4998687;28;20021;-65
2023/07/16 15:04:40;;;;;;;24.58;17.67;;;;;;;;;;4998253;28;20018;-65
2023/07/16 15:07:07;;;;;;;22.02;16.58;;;;;;;;;;4998473;28;20037;-65
2023/07/16 15:09:37;;;;;;;23.88;16.35;;;;;;;;;;4998986;28;20041;-65
2023/07/16 15:12:05;;;;;;;23.38;15.57;;;;;;;;;;4998793;28;20480;-64
2023/07/16 15:14:32;;;;;;;24.35;16.77;;;;;;;;;;4998856;28;21423;-65
2023/07/16 15:16:59;;;;;;;22.00;15.55;;;;;;;;;;4998857;28;20034;-66
2023/07/16 15:19:26;;;;;;;23.52;16.90;;;;;;;;;;4998515;28;20392;-65
2023/07/16 15:21:52;;;;;;;25.27;17.30;;;;;;;;;;4998998;28;20033;-65
2023/07/16 15:24:19;;;;;;;23.10;16.92;;;;;;;;;;4998792;28;20183;-68
2023/07/16 15:26:46;;;;;;;25.50;16.42;;;;;;;;;;4998700;28;20511;-68
2023/07/16 15:29:12;;;;;;;23.70;17.08;;;;;;;;;;4999013;28;20061;-66
2023/07/16 15:31:39;;;;;;;23.15;17.48;;;;;;;;;;5005139;28;20474;-66
2023/07/16 15:34:05;;;;;;;25.55;17.33;;;;;;;;;;5010300;28;20083;-65